Hovedside
METAR-TAF:

METAR-TAF

Lufthavner :

Mo i Rana lufthavn. Røssvoll

Mo i Rana, Norge

breddegrad: 66-22N, lengdegrad: 014-18E, høyde over havet: 7 m

Gjeldene værobservasjon

Denne rapporten ble laget for 54 minutter siden, klokken 05:50 UTC
Vind 2 kt fra skiftende retning
Temperatur -3°C
Luftfuktighet 80%
Trykk 1016 hPa
Sikt 10 km eller mer
Spredte skyer i en høyde av 4000 ft
Brutte skyer i en høyde av 5000 ft
lett snø

METAR: ENRA 150550Z VRB02KT 9999 -SN SCT040 BKN050 M03/M06 Q1016

Tid: 07:44 (06:44 UTC)

Varsel

Denne rapporten ble laget for 1 time og 44 minutter siden, klokken 05:00 UTC
Varsel gyldig fra 15. klokken 06 UTC til 15. klokken 15 UTC
Vind 5 kt fra Sørøst
Sikt 10 km eller mer
Få skyer i en høyde av 2000 ft
Brutte skyer i en høyde av 3000 ft
Sannsynlighet 30% :
Midlertidig
fra 15. klokken 11 UTC til 15. klokken 15 UTC
(lett) frysende, regn

TAF: ENRA 150500Z 1506/1515 14005KT 9999 FEW020 BKN030 PROB30 TEMPO 1511/1515 -FZRA

Værobservasjoner og værvarsel for over 4000 flyplasser (METAR- og TAF-rapporter).

Tilgjengelige stasjoner er representert av de røde og gule prikkene på kartet.

Hold musepekeren over prikken for å se navnet på stasjonen.

Klikk så for å se værobservasjoner og -varsler.

For å forandre kartet kan du klikke på den grønne knappen med svart kryss for å zoome inn, på den grønne knappen med strek for å zoome ut, eller på de grønne pilene for å se tilstøtende kart.


METAR-TAF: